El Anil, Argentina
Current Conditions -  °F | °C
As of 3:00 PM on Saturday 25 Oct 2014 (Local Time) from SANT Reporting Station
Clear Clear  
Wind Chill: 102°   Ceiling: Unl
Heat Index: 102°   Visibility: 4mi
Dew Point: 50°   Wind: 15mph
Humidity: 17%   Direction: 50°NE
Pressure: 29.8"   Gusts: NA
Location:  27.87°S, 64.08°W
Report Text: SANT 251800Z 05013KT 7000 NSC 39/10 Q1009
Loading
Personal Weather Stations






























Interactive Weather Map New forecast layout! Learn more

10-Day Weather Forecast

Advertisements
Track Severe Weather on mobile